createdAt,value
2022-09-13T00:00:00.651Z,0.93
2022-09-13T00:02:27.106Z,0.73
2022-09-13T00:04:53.464Z,1.00
2022-09-13T00:07:19.827Z,0.70
2022-09-13T00:09:48.433Z,0.88
2022-09-13T00:12:17.181Z,0.60
2022-09-13T00:14:43.568Z,1.02
2022-09-13T00:17:12.392Z,0.82
2022-09-13T00:19:38.754Z,0.90
2022-09-13T00:22:09.905Z,0.90
2022-09-13T00:24:37.257Z,0.90
2022-09-13T00:27:03.840Z,1.00
2022-09-13T00:29:32.384Z,0.70
2022-09-13T00:32:03.318Z,0.80
2022-09-13T00:34:32.097Z,0.90
2022-09-13T00:36:58.468Z,0.88
2022-09-13T00:39:27.358Z,0.73
2022-09-13T00:41:53.855Z,0.60
2022-09-13T00:44:58.601Z,0.80
2022-09-13T00:47:26.652Z,0.70
2022-09-13T00:49:57.718Z,0.90
2022-09-13T00:52:25.930Z,1.15
2022-09-13T00:55:00.470Z,1.25
2022-09-13T00:57:27.422Z,1.05
2022-09-13T01:00:01.114Z,1.10
2022-09-13T01:02:28.749Z,1.48
2022-09-13T01:04:59.100Z,1.10
2022-09-13T01:07:25.580Z,1.20
2022-09-13T01:09:52.993Z,1.10
2022-09-13T01:12:33.985Z,1.10
2022-09-13T01:15:01.812Z,0.98
2022-09-13T01:17:31.238Z,1.05
2022-09-13T01:19:58.031Z,1.02
2022-09-13T01:23:06.450Z,1.27
2022-09-13T01:25:36.034Z,1.33
2022-09-13T01:28:44.108Z,1.25
2022-09-13T01:31:25.305Z,1.30
2022-09-13T01:33:57.749Z,1.30
2022-09-13T01:36:44.182Z,1.30
2022-09-13T01:39:32.209Z,1.23
2022-09-13T01:42:07.479Z,1.27
2022-09-13T01:45:00.153Z,1.30
2022-09-13T01:47:44.258Z,1.33
2022-09-13T01:50:16.562Z,1.80
2022-09-13T01:52:52.725Z,1.75
2022-09-13T01:55:29.906Z,1.00
2022-09-13T01:58:12.815Z,1.20
2022-09-13T02:01:08.364Z,1.17
2022-09-13T02:04:01.123Z,1.35
2022-09-13T02:06:33.722Z,1.23
2022-09-13T02:09:04.387Z,1.23
2022-09-13T02:11:31.266Z,1.20
2022-09-13T02:14:02.441Z,1.60
2022-09-13T02:16:39.708Z,1.20
2022-09-13T02:19:19.022Z,1.20
2022-09-13T02:21:51.705Z,1.48
2022-09-13T02:24:21.647Z,1.17
2022-09-13T02:26:51.328Z,1.50
2022-09-13T02:29:19.806Z,1.30
2022-09-13T02:32:00.419Z,1.43
2022-09-13T02:34:48.505Z,1.10
2022-09-13T02:37:15.533Z,1.30
2022-09-13T02:39:46.774Z,1.05
2022-09-13T02:42:21.164Z,1.38
2022-09-13T02:44:53.074Z,1.10
2022-09-13T02:47:38.721Z,1.00
2022-09-13T02:50:22.851Z,1.60
2022-09-13T02:53:30.369Z,1.33
2022-09-13T02:56:30.592Z,1.40
2022-09-13T02:58:59.231Z,1.50
2022-09-13T03:01:25.784Z,1.10
2022-09-13T03:03:54.260Z,1.48
2022-09-13T03:06:30.569Z,1.33
2022-09-13T03:08:59.869Z,1.30
2022-09-13T03:12:00.874Z,1.38
2022-09-13T03:14:49.062Z,1.40
2022-09-13T03:17:18.434Z,1.50
2022-09-13T03:20:09.566Z,1.05
2022-09-13T03:22:50.375Z,1.23
2022-09-13T03:25:24.203Z,1.20
2022-09-13T03:27:57.232Z,1.77
2022-09-13T03:30:23.663Z,1.48
2022-09-13T03:33:15.560Z,1.20
2022-09-13T03:36:06.212Z,1.23
2022-09-13T03:39:04.157Z,1.13
2022-09-13T03:41:35.083Z,1.30
2022-09-13T03:44:09.820Z,1.10
2022-09-13T03:46:45.047Z,1.30
2022-09-13T03:49:17.159Z,1.97
2022-09-13T03:51:48.062Z,1.65
2022-09-13T03:54:26.342Z,1.10
2022-09-13T03:57:16.607Z,1.50
2022-09-13T03:59:51.337Z,1.20
2022-09-13T04:02:21.763Z,1.20
2022-09-13T04:04:48.499Z,1.30
2022-09-13T04:07:20.322Z,1.40
2022-09-13T04:09:46.738Z,1.25
2022-09-13T04:12:16.941Z,1.13
2022-09-13T04:14:46.359Z,1.00
2022-09-13T04:17:17.471Z,1.10
2022-09-13T04:19:45.567Z,1.07
2022-09-13T04:22:11.928Z,1.20
2022-09-13T04:24:39.716Z,1.00
2022-09-13T04:27:06.566Z,1.10
2022-09-13T04:29:35.334Z,1.20
2022-09-13T04:32:06.520Z,1.03
2022-09-13T04:34:32.897Z,1.00
2022-09-13T04:36:59.281Z,1.30
2022-09-13T04:39:25.652Z,1.30
2022-09-13T04:41:54.489Z,1.60
2022-09-13T04:44:21.624Z,2.07
2022-09-13T04:46:48.952Z,1.30
2022-09-13T04:49:18.345Z,1.47
2022-09-13T04:51:44.827Z,1.45
2022-09-13T04:54:16.243Z,1.80
2022-09-13T04:56:48.761Z,1.90
2022-09-13T04:59:17.417Z,1.30
2022-09-13T05:01:43.980Z,1.30
2022-09-13T05:04:12.738Z,1.40
2022-09-13T05:06:39.128Z,1.88
2022-09-13T05:09:05.873Z,1.50
2022-09-13T05:11:32.408Z,2.03
2022-09-13T05:14:01.609Z,1.60
2022-09-13T05:16:32.534Z,2.00
2022-09-13T05:19:01.799Z,1.50
2022-09-13T05:21:28.826Z,1.45
2022-09-13T05:23:55.911Z,1.10
2022-09-13T05:26:23.879Z,1.00
2022-09-13T05:28:52.549Z,1.33
2022-09-13T05:31:24.598Z,1.00
2022-09-13T05:33:54.476Z,1.40
2022-09-13T05:36:23.130Z,1.38
2022-09-13T05:38:55.098Z,1.30
2022-09-13T05:41:33.738Z,1.08
2022-09-13T05:44:12.611Z,1.30
2022-09-13T05:46:39.836Z,1.20
2022-09-13T05:49:06.219Z,1.85
2022-09-13T05:51:32.676Z,1.40
2022-09-13T05:53:59.573Z,1.27
2022-09-13T05:56:28.907Z,1.25
2022-09-13T05:58:55.597Z,1.35
2022-09-13T06:01:26.950Z,1.30
2022-09-13T06:03:57.902Z,1.08
2022-09-13T06:06:27.679Z,1.48
2022-09-13T06:08:57.871Z,1.60
2022-09-13T06:11:25.744Z,1.30
2022-09-13T06:13:53.164Z,1.30
2022-09-13T06:16:22.259Z,1.75
2022-09-13T06:18:49.021Z,1.40
2022-09-13T06:21:19.245Z,1.60
2022-09-13T06:23:50.908Z,2.25
2022-09-13T06:26:19.175Z,2.05
2022-09-13T06:28:52.843Z,2.08
2022-09-13T06:31:24.824Z,1.55
2022-09-13T06:34:02.190Z,1.67
2022-09-13T06:36:33.451Z,1.88
2022-09-13T06:39:02.074Z,1.83
2022-09-13T06:41:30.593Z,1.50
2022-09-13T06:44:00.924Z,1.42
2022-09-13T06:46:31.767Z,1.60
2022-09-13T06:49:08.325Z,1.75
2022-09-13T06:51:35.455Z,2.10
2022-09-13T06:54:04.335Z,1.85
2022-09-13T06:56:35.152Z,2.10
2022-09-13T06:59:07.379Z,1.90
2022-09-13T07:01:38.403Z,1.88
2022-09-13T07:04:07.239Z,1.77
2022-09-13T07:06:36.097Z,1.52
2022-09-13T07:09:07.263Z,1.52
2022-09-13T07:11:38.713Z,1.30
2022-09-13T07:14:06.779Z,1.35
2022-09-13T07:16:38.519Z,1.45
2022-09-13T07:19:12.150Z,0.98
2022-09-13T07:21:38.544Z,1.20
2022-09-13T07:24:05.384Z,1.30
2022-09-13T07:26:31.784Z,1.17
2022-09-13T07:29:03.458Z,1.00
2022-09-13T07:31:34.938Z,1.25
2022-09-13T07:34:10.972Z,1.40
2022-09-13T07:36:39.732Z,1.80
2022-09-13T07:39:13.579Z,2.17
2022-09-13T07:41:41.519Z,1.83
2022-09-13T07:44:10.548Z,2.10
2022-09-13T07:46:39.933Z,1.80
2022-09-13T07:49:06.797Z,1.40
2022-09-13T07:51:35.247Z,1.77
2022-09-13T07:54:03.986Z,1.73
2022-09-13T07:56:32.701Z,1.90
2022-09-13T07:59:03.990Z,2.20
2022-09-13T08:01:44.463Z,2.10
2022-09-13T08:04:17.110Z,2.95
2022-09-13T08:06:43.713Z,2.50
2022-09-13T08:09:15.439Z,2.30
2022-09-13T08:11:42.807Z,3.03
2022-09-13T08:14:13.935Z,1.90
2022-09-13T08:16:40.444Z,1.70
2022-09-13T08:19:10.940Z,1.52
2022-09-13T08:21:40.946Z,1.50
2022-09-13T08:24:08.777Z,1.30
2022-09-13T08:26:36.088Z,1.05
2022-09-13T08:29:04.886Z,1.40
2022-09-13T08:31:33.900Z,1.58
2022-09-13T08:34:00.490Z,1.60
2022-09-13T08:36:27.721Z,1.85
2022-09-13T08:39:00.145Z,1.42
2022-09-13T08:41:39.572Z,1.20
2022-09-13T08:44:35.304Z,1.60
2022-09-13T08:47:35.702Z,1.00
2022-09-13T08:50:13.067Z,1.30
2022-09-13T08:52:45.264Z,1.50
2022-09-13T08:55:31.868Z,1.48
2022-09-13T08:58:25.709Z,1.50
2022-09-13T09:01:02.351Z,1.13
2022-09-13T09:03:49.010Z,1.17
2022-09-13T09:06:16.829Z,1.20
2022-09-13T09:08:48.053Z,1.25
2022-09-13T09:11:24.389Z,1.25
2022-09-13T09:13:56.472Z,1.25
2022-09-13T09:16:40.751Z,1.10
2022-09-13T09:19:22.341Z,1.08
2022-09-13T09:21:52.577Z,1.08
2022-09-13T09:24:25.167Z,0.82
2022-09-13T09:26:57.406Z,0.80
2022-09-13T09:29:29.922Z,1.00
2022-09-13T09:32:40.500Z,1.00
2022-09-13T09:35:12.891Z,1.30
2022-09-13T09:37:39.803Z,1.10
2022-09-13T09:40:08.935Z,0.95
2022-09-13T09:42:41.677Z,1.20
2022-09-13T09:45:16.507Z,1.13
2022-09-13T09:47:47.019Z,0.65
2022-09-13T09:50:14.417Z,1.00
2022-09-13T09:53:10.322Z,0.68
2022-09-13T09:55:46.802Z,0.60
2022-09-13T09:58:16.965Z,0.60
2022-09-13T10:00:55.236Z,0.60
2022-09-13T10:03:32.828Z,0.60
2022-09-13T10:06:15.394Z,0.50
2022-09-13T10:08:45.074Z,0.50
2022-09-13T10:11:13.653Z,0.60
2022-09-13T10:14:02.731Z,0.60
2022-09-13T10:16:30.461Z,0.80
2022-09-13T10:19:29.293Z,0.60
2022-09-13T10:22:05.648Z,0.68
2022-09-13T10:24:33.004Z,0.68
2022-09-13T10:27:00.062Z,0.80
2022-09-13T10:29:29.893Z,0.90
2022-09-13T10:32:01.256Z,0.65
2022-09-13T10:34:33.692Z,0.68
2022-09-13T10:37:21.393Z,0.50
2022-09-13T10:40:03.991Z,0.47
2022-09-13T10:42:31.303Z,0.82
2022-09-13T10:45:07.499Z,0.60
2022-09-13T10:47:45.799Z,0.52
2022-09-13T10:50:23.909Z,0.60
2022-09-13T10:52:56.741Z,0.60
2022-09-13T10:55:31.196Z,0.60
2022-09-13T10:58:16.605Z,0.60
2022-09-13T11:00:48.868Z,0.60
2022-09-13T11:03:34.538Z,0.70
2022-09-13T11:06:20.946Z,0.45
2022-09-13T11:08:54.856Z,0.30
2022-09-13T11:11:39.614Z,0.55
2022-09-13T11:14:30.820Z,0.70
2022-09-13T11:17:29.543Z,0.60
2022-09-13T11:20:05.831Z,0.60
2022-09-13T11:22:53.459Z,0.50
2022-09-13T11:25:42.581Z,0.40
2022-09-13T11:28:28.845Z,0.50
2022-09-13T11:31:17.237Z,0.50
2022-09-13T11:34:08.621Z,0.65
2022-09-13T11:36:47.047Z,0.60
2022-09-13T11:39:31.579Z,0.50
2022-09-13T11:42:13.597Z,0.50
2022-09-13T11:45:21.413Z,0.50
2022-09-13T11:48:16.004Z,0.50
2022-09-13T11:50:43.707Z,0.50
2022-09-13T11:53:44.906Z,0.45
2022-09-13T11:56:15.382Z,0.30
2022-09-13T11:58:49.417Z,0.50
2022-09-13T12:01:28.616Z,0.40
2022-09-13T12:03:57.927Z,0.30
2022-09-13T12:06:34.458Z,0.60
2022-09-13T12:09:11.458Z,0.50
2022-09-13T12:11:44.049Z,0.30
2022-09-13T12:14:23.770Z,0.40
2022-09-13T12:16:58.580Z,0.40
2022-09-13T12:19:28.521Z,0.60
2022-09-13T12:22:02.405Z,0.38
2022-09-13T12:24:35.880Z,0.30
2022-09-13T12:27:25.038Z,0.43
2022-09-13T12:29:51.960Z,0.50
2022-09-13T12:32:18.784Z,1.00
2022-09-13T12:34:57.184Z,1.08
2022-09-13T12:37:41.717Z,0.98
2022-09-13T12:40:43.693Z,0.88
2022-09-13T12:43:37.092Z,1.00
2022-09-13T12:46:16.036Z,0.65
2022-09-13T12:49:04.290Z,0.77
2022-09-13T12:51:56.481Z,0.70
2022-09-13T12:54:48.362Z,0.80
2022-09-13T12:57:36.804Z,0.55
2022-09-13T13:00:22.208Z,0.57
2022-09-13T13:02:54.715Z,0.85
2022-09-13T13:05:31.643Z,0.60
2022-09-13T13:08:01.394Z,0.60
2022-09-13T13:10:34.280Z,0.73
2022-09-13T13:13:21.005Z,0.80
2022-09-13T13:15:50.087Z,0.60
2022-09-13T13:18:33.996Z,0.70
2022-09-13T13:21:02.796Z,0.95
2022-09-13T13:23:39.922Z,0.70
2022-09-13T13:26:46.203Z,0.70
2022-09-13T13:29:30.854Z,0.70
2022-09-13T13:31:57.199Z,0.95
2022-09-13T13:34:23.703Z,0.63
2022-09-13T13:36:53.506Z,0.60
2022-09-13T13:39:25.313Z,0.70
2022-09-13T13:41:55.911Z,0.68
2022-09-13T13:44:22.249Z,0.68
2022-09-13T13:46:49.359Z,0.57
2022-09-13T13:49:30.676Z,0.60
2022-09-13T13:52:06.176Z,0.57
2022-09-13T13:54:44.066Z,0.60
2022-09-13T13:57:40.957Z,0.40
2022-09-13T14:00:28.729Z,0.47
2022-09-13T14:03:23.920Z,0.68
2022-09-13T14:05:53.145Z,0.57
2022-09-13T14:08:52.998Z,0.52
2022-09-13T14:11:48.392Z,0.52
2022-09-13T14:14:34.288Z,0.60
2022-09-13T14:17:06.613Z,0.77
2022-09-13T14:19:42.511Z,0.50
2022-09-13T14:22:21.699Z,0.68
2022-09-13T14:24:53.567Z,0.60
2022-09-13T14:27:22.669Z,0.50
2022-09-13T14:29:52.180Z,0.70
2022-09-13T14:32:35.057Z,0.70
2022-09-13T14:35:07.203Z,0.30
2022-09-13T14:37:36.781Z,0.50
2022-09-13T14:40:08.964Z,0.60
2022-09-13T14:42:43.108Z,0.70
2022-09-13T14:45:31.506Z,0.40
2022-09-13T14:48:04.859Z,0.40
2022-09-13T14:50:35.314Z,0.70
2022-09-13T14:53:07.287Z,0.50
2022-09-13T14:55:40.358Z,0.60
2022-09-13T14:58:13.850Z,0.63
2022-09-13T15:00:55.848Z,0.50
2022-09-13T15:03:24.890Z,0.43
2022-09-13T15:06:00.508Z,0.57
2022-09-13T15:08:32.977Z,0.40
2022-09-13T15:11:03.389Z,0.60
2022-09-13T15:13:32.550Z,0.30
2022-09-13T15:15:59.540Z,0.50
2022-09-13T15:18:37.133Z,0.52
2022-09-13T15:21:15.767Z,0.50
2022-09-13T15:23:45.626Z,0.50
2022-09-13T15:26:23.582Z,0.50
2022-09-13T15:28:53.761Z,0.50
2022-09-13T15:31:21.589Z,0.47
2022-09-13T15:33:49.697Z,0.45
2022-09-13T15:36:20.053Z,0.40
2022-09-13T15:39:01.001Z,0.25
2022-09-13T15:41:34.711Z,0.40
2022-09-13T15:44:02.275Z,0.50
2022-09-13T15:46:29.539Z,0.45
2022-09-13T15:49:05.112Z,0.80
2022-09-13T15:51:35.541Z,0.80
2022-09-13T15:54:13.101Z,0.68
2022-09-13T15:56:44.399Z,0.50
2022-09-13T15:59:20.743Z,0.50
2022-09-13T16:01:53.801Z,0.70
2022-09-13T16:04:22.288Z,0.77
2022-09-13T16:06:51.328Z,0.70
2022-09-13T16:09:21.542Z,0.73
2022-09-13T16:11:49.164Z,0.63
2022-09-13T16:14:16.518Z,0.70
2022-09-13T16:16:43.524Z,0.80
2022-09-13T16:19:20.924Z,0.65
2022-09-13T16:21:50.109Z,0.60
2022-09-13T16:24:17.082Z,0.80
2022-09-13T16:26:45.904Z,0.70
2022-09-13T16:29:15.125Z,0.60
2022-09-13T16:31:41.747Z,0.70
2022-09-13T16:34:10.351Z,0.50
2022-09-13T16:36:36.763Z,0.70
2022-09-13T16:39:04.042Z,0.63
2022-09-13T16:41:30.417Z,0.63
2022-09-13T16:43:57.229Z,0.70
2022-09-13T16:46:26.792Z,0.65
2022-09-13T16:48:58.793Z,0.70
2022-09-13T16:51:25.855Z,0.68
2022-09-13T16:53:53.379Z,0.70
2022-09-13T16:56:22.686Z,0.60
2022-09-13T16:58:49.815Z,0.80
2022-09-13T17:01:21.882Z,0.80
2022-09-13T17:03:50.858Z,0.70
2022-09-13T17:06:21.083Z,0.80
2022-09-13T17:09:03.036Z,0.80
2022-09-13T17:11:34.460Z,0.60
2022-09-13T17:14:05.407Z,0.60
2022-09-13T17:16:33.199Z,0.82
2022-09-13T17:19:01.638Z,0.90
2022-09-13T17:21:28.716Z,0.82
2022-09-13T17:23:55.673Z,1.02
2022-09-13T17:26:24.929Z,0.63
2022-09-13T17:28:53.614Z,0.93
2022-09-13T17:31:20.157Z,0.80
2022-09-13T17:33:53.126Z,0.65
2022-09-13T17:36:19.856Z,0.80
2022-09-13T17:38:48.887Z,0.50
2022-09-13T17:41:19.276Z,0.70
2022-09-13T17:43:46.526Z,0.52
2022-09-13T17:46:22.226Z,0.50
2022-09-13T17:48:51.053Z,0.52
2022-09-13T17:51:22.347Z,0.55
2022-09-13T17:53:53.660Z,0.52
2022-09-13T17:56:41.540Z,0.60
2022-09-13T17:59:10.061Z,0.47
2022-09-13T18:01:42.138Z,0.60
2022-09-13T18:04:09.095Z,0.60
2022-09-13T18:06:36.634Z,0.50
2022-09-13T18:09:03.247Z,0.50
2022-09-13T18:11:29.978Z,0.60
2022-09-13T18:13:58.620Z,0.52
2022-09-13T18:16:26.885Z,0.50
2022-09-13T18:18:53.734Z,0.63
2022-09-13T18:21:22.005Z,0.57
2022-09-13T18:23:50.385Z,0.60
2022-09-13T18:26:23.226Z,0.60
2022-09-13T18:29:01.539Z,0.57
2022-09-13T18:31:28.847Z,0.50
2022-09-13T18:34:03.028Z,0.70
2022-09-13T18:36:30.542Z,0.70
2022-09-13T18:38:57.216Z,0.75
2022-09-13T18:41:24.555Z,0.75
2022-09-13T18:43:55.446Z,0.80
2022-09-13T18:46:24.626Z,0.80
2022-09-13T18:48:55.322Z,0.60
2022-09-13T18:51:24.948Z,0.70
2022-09-13T18:53:55.590Z,0.70
2022-09-13T18:56:23.424Z,0.70
2022-09-13T18:58:50.947Z,0.70
2022-09-13T19:01:20.627Z,0.82
2022-09-13T19:03:53.670Z,0.60
2022-09-13T19:06:24.407Z,0.60
2022-09-13T19:08:51.342Z,0.70
2022-09-13T19:11:44.839Z,0.52
2022-09-13T19:14:09.810Z,0.50
2022-09-13T19:16:36.289Z,0.70
2022-09-13T19:19:05.795Z,0.90
2022-09-13T19:21:36.134Z,0.90
2022-09-13T19:24:09.413Z,0.90
2022-09-13T19:26:41.007Z,0.75
2022-09-13T19:29:11.567Z,0.60
2022-09-13T19:31:42.007Z,0.63
2022-09-13T19:34:09.138Z,0.70
2022-09-13T19:36:39.418Z,0.55
2022-09-13T19:39:09.209Z,0.60
2022-09-13T19:41:38.348Z,0.80
2022-09-13T19:44:05.121Z,0.60
2022-09-13T19:46:34.755Z,0.77
2022-09-13T19:49:04.402Z,0.70
2022-09-13T19:51:36.195Z,1.00
2022-09-13T19:54:06.180Z,0.90
2022-09-13T19:56:34.923Z,0.80
2022-09-13T19:59:02.046Z,0.80
2022-09-13T20:01:33.800Z,1.10
2022-09-13T20:04:02.280Z,0.70
2022-09-13T20:06:38.704Z,0.70
2022-09-13T20:09:05.496Z,0.50
2022-09-13T20:11:32.607Z,0.70
2022-09-13T20:14:04.585Z,0.70
2022-09-13T20:16:33.937Z,0.93
2022-09-13T20:19:01.216Z,0.82
2022-09-13T20:21:29.254Z,0.70
2022-09-13T20:23:58.870Z,0.80
2022-09-13T20:26:25.807Z,0.60
2022-09-13T20:29:00.574Z,0.82
2022-09-13T20:31:28.219Z,0.77
2022-09-13T20:34:01.410Z,0.80
2022-09-13T20:36:30.061Z,0.85
2022-09-13T20:39:03.158Z,0.80
2022-09-13T20:41:31.156Z,0.80
2022-09-13T20:44:00.863Z,0.93
2022-09-13T20:46:31.251Z,0.63
2022-09-13T20:48:58.119Z,0.82
2022-09-13T20:51:25.516Z,0.75
2022-09-13T20:54:00.210Z,0.80
2022-09-13T20:56:28.144Z,0.73
2022-09-13T20:58:57.642Z,0.90
2022-09-13T21:01:29.608Z,0.68
2022-09-13T21:03:56.353Z,0.95
2022-09-13T21:06:26.095Z,0.70
2022-09-13T21:08:52.859Z,1.10
2022-09-13T21:11:24.388Z,0.95
2022-09-13T21:13:55.630Z,1.10
2022-09-13T21:16:24.326Z,0.90
2022-09-13T21:18:51.570Z,0.73
2022-09-13T21:21:23.735Z,1.30
2022-09-13T21:23:50.382Z,0.90
2022-09-13T21:26:20.180Z,0.73
2022-09-13T21:28:46.913Z,0.90
2022-09-13T21:31:22.595Z,0.88
2022-09-13T21:33:56.861Z,0.93
2022-09-13T21:36:26.442Z,1.00
2022-09-13T21:38:54.356Z,1.23
2022-09-13T21:41:23.995Z,1.50
2022-09-13T21:43:53.145Z,1.42
2022-09-13T21:46:24.921Z,1.63
2022-09-13T21:48:54.170Z,1.17
2022-09-13T21:51:23.830Z,1.50
2022-09-13T21:53:58.180Z,1.10
2022-09-13T21:56:28.906Z,1.10
2022-09-13T21:58:59.370Z,1.00
2022-09-13T22:01:30.039Z,1.20
2022-09-13T22:03:57.207Z,0.70
2022-09-13T22:06:23.962Z,0.80
2022-09-13T22:08:53.037Z,1.02
2022-09-13T22:11:22.150Z,1.27
2022-09-13T22:13:48.638Z,0.85
2022-09-13T22:16:21.042Z,1.00
2022-09-13T22:18:51.379Z,0.77
2022-09-13T22:21:21.301Z,1.33
2022-09-13T22:23:48.593Z,1.40
2022-09-13T22:26:22.380Z,1.20
2022-09-13T22:28:48.914Z,0.93
2022-09-13T22:31:19.990Z,1.00
2022-09-13T22:33:49.462Z,1.05
2022-09-13T22:36:21.211Z,0.93
2022-09-13T22:38:51.938Z,0.90
2022-09-13T22:41:26.016Z,1.08
2022-09-13T22:43:52.605Z,0.70
2022-09-13T22:46:24.267Z,0.93
2022-09-13T22:48:50.946Z,0.90
2022-09-13T22:51:20.321Z,0.90
2022-09-13T22:53:50.517Z,0.93
2022-09-13T22:56:20.723Z,1.00
2022-09-13T22:58:47.693Z,1.05
2022-09-13T23:01:17.042Z,0.82
2022-09-13T23:03:45.397Z,1.27
2022-09-13T23:06:16.183Z,0.90
2022-09-13T23:08:42.628Z,1.10
2022-09-13T23:11:11.121Z,1.13
2022-09-13T23:13:37.794Z,0.90
2022-09-13T23:16:08.435Z,1.27
2022-09-13T23:18:37.380Z,1.00
2022-09-13T23:21:06.335Z,1.00
2022-09-13T23:23:32.823Z,0.90
2022-09-13T23:26:17.350Z,0.85
2022-09-13T23:28:45.810Z,1.13
2022-09-13T23:31:23.793Z,0.88
2022-09-13T23:33:53.652Z,1.10
2022-09-13T23:36:26.243Z,1.00
2022-09-13T23:38:54.884Z,1.10
2022-09-13T23:41:21.525Z,0.95
2022-09-13T23:43:48.551Z,0.80
2022-09-13T23:46:15.413Z,0.77
2022-09-13T23:48:43.925Z,0.80
2022-09-13T23:51:12.878Z,0.75
2022-09-13T23:53:41.896Z,0.82
2022-09-13T23:56:11.156Z,1.08
2022-09-13T23:58:40.419Z,0.70
